Norwegian Getaway — C6ZJ4 — position and weather

sailwx.info

Track history (hours):
 
Tides and Currents Weather Stations Pressure Air Temp Water Temp Dewpoint Dewpoint Depression Visibility Wind Speed Wind Dir Waves Ship Positions

Norwegian Getaway

Last reported at 2017-Jul-22 18:00 UTC. Time now 2017-Jul-22 18:27 UTC.
Position N 59°57' E 030°11'.

Length 326 m; draft 8.8 m.

Type: Passenger vessel. MMSI: 311050900.

Date/timePositionNaut miles runAvg speedWind from/ knotsBaromVisibWave heightAir tempDewpointWater temp
2017-Jul-22 18:00N 59°57' E 030°11'0 0.0
2017-Jul-22 17:27N 59°57' E 030°11'0 0.0
2017-Jul-22 16:58N 59°57' E 030°11'0 0.0
2017-Jul-22 16:30N 59°57' E 030°11'0 0.0
2017-Jul-22 15:58N 59°57' E 030°11'0 0.0
2017-Jul-22 15:30N 59°57' E 030°11'0 0.0
2017-Jul-22 15:00N 59°57' E 030°11'0 0.0
2017-Jul-22 13:58N 59°57' E 030°11'0 0.0
2017-Jul-22 13:30N 59°57' E 030°11'0 0.0
2017-Jul-22 12:58N 59°57' E 030°11'0 0.0
2017-Jul-22 12:28N 59°57' E 030°11'0 0.0
2017-Jul-22 11:58N 59°57' E 030°11'0 0.0
2017-Jul-22 11:28N 59°57' E 030°11'0 0.0
2017-Jul-22 10:58N 59°57' E 030°11'0 0.0
2017-Jul-22 10:30N 59°57' E 030°11'0 0.0
2017-Jul-22 09:58N 59°57' E 030°11'0 0.0
2017-Jul-22 09:30N 59°57' E 030°11'0 0.0
2017-Jul-22 08:48N 59°57' E 030°11'0 0.0
2017-Jul-22 08:21N 59°57' E 030°11'0 0.0
2017-Jul-22 07:54N 59°57' E 030°11'0 0.0
2017-Jul-22 07:29N 59°57' E 030°11'0 0.0
2017-Jul-22 06:58N 59°57' E 030°11'0 0.0
2017-Jul-22 06:21N 59°57' E 030°11'0 0.0
2017-Jul-22 05:59N 59°57' E 030°11'0 0.0
2017-Jul-22 05:22N 59°57' E 030°11'0 0.0
2017-Jul-22 05:00N 59°57' E 030°11'0 0.0
2017-Jul-22 04:29N 59°57' E 030°11'0 0.0
2017-Jul-22 03:55N 59°57' E 030°11'0 0.0
2017-Jul-22 03:30N 59°57' E 030°11'1 2.3
2017-Jul-22 03:00N 59°57' E 030°09'5 9.7
2017-Jul-22 02:30N 59°55' E 029°60'611.6
2017-Jul-22 02:00N 59°58' E 029°49'4 8.5
2017-Jul-22 01:30N 59°60' E 029°41'611.9
2017-Jul-22 00:59N 60°01' E 029°29'4 9.4
2017-Jul-22 00:30N 60°02' E 029°20'713.6
2017-Jul-22 00:00N 60°02' E 029°07'714.0
2017-Jul-21 23:30N 60°02' E 028°53'713.9
2017-Jul-21 23:00N 60°02' E 028°39'713.8
2017-Jul-21 22:30N 60°03' E 028°25'713.9
2017-Jul-21 22:00N 60°07' E 028°14'714.1
2017-Jul-21 21:30N 60°09' E 028°00'714.5
2017-Jul-21 21:00N 60°11' E 027°46'714.7
2017-Jul-21 20:30N 60°07' E 027°33'815.1
2017-Jul-21 20:01N 60°03' E 027°20'815.0
2017-Jul-21 19:30N 59°59' E 027°08'714.9
2017-Jul-21 19:01N 59°59' E 026°53'815.2
2017-Jul-21 18:30N 59°59' E 026°38'815.6
2017-Jul-21 18:01N 59°57' E 026°23'816.1
2017-Jul-21 17:30N 59°55' E 026°07'815.8
2017-Jul-21 17:00N 59°53' E 025°52'815.5
2017-Jul-21 16:30N 59°52' E 025°37'714.9
2017-Jul-21 16:01N 59°54' E 025°22'815.6
2017-Jul-21 15:31N 59°55' E 025°07'713.6
2017-Jul-21 15:00N 59°59' E 024°57'611.0
2017-Jul-21 14:31N 60°05' E 024°53'4 8.8
2017-Jul-21 14:00N 60°09' E 024°55'0 0.4
2017-Jul-21 13:29N 60°09' E 024°55'0 0.0
2017-Jul-21 12:59N 60°09' E 024°55'0 0.0
2017-Jul-21 12:29N 60°09' E 024°55'0 0.0
2017-Jul-21 11:59N 60°09' E 024°55'0 0.0
2017-Jul-21 11:28N 60°09' E 024°55'0 0.0
2017-Jul-21 11:00N 60°09' E 024°55'0 0.0
2017-Jul-21 10:30N 60°09' E 024°55'0 0.0
2017-Jul-21 09:59N 60°09' E 024°55'0 0.0
2017-Jul-21 09:29N 60°09' E 024°55'0 0.0
2017-Jul-21 08:58N 60°09' E 024°55'0 0.0
2017-Jul-21 08:27N 60°09' E 024°55'0 0.0
2017-Jul-21 08:00N 60°09' E 024°55'0 0.0
2017-Jul-21 07:29N 60°09' E 024°55'0 0.0
2017-Jul-21 06:59N 60°09' E 024°55'0 0.0
2017-Jul-21 06:29N 60°09' E 024°55'0 0.0
2017-Jul-21 05:59N 60°09' E 024°55'0 0.0
2017-Jul-21 05:29N 60°09' E 024°55'1 1.5
2017-Jul-21 05:00N 60°08' E 024°54'5 9.8
2017-Jul-21 04:30N 60°04' E 024°54'612.3
2017-Jul-21 04:00N 59°58' E 024°56'815.3
2017-Jul-21 03:30N 59°50' E 024°53'714.3
2017-Jul-21 03:00N 59°46' E 024°41'816.0
2017-Jul-21 02:31N 59°44' E 024°26'815.7
2017-Jul-21 02:00N 59°41' E 024°11'816.0
2017-Jul-21 01:31N 59°39' E 023°56'815.9
2017-Jul-21 01:00N 59°37' E 023°41'815.8
2017-Jul-21 00:31N 59°34' E 023°27'815.9
2017-Jul-21 00:00N 59°31' E 023°12'918.5
2017-Jul-20 23:31N 59°29' E 022°54'918.6
2017-Jul-20 23:00N 59°25' E 022°37'918.7
2017-Jul-20 22:31N 59°19' E 022°23'918.9
2017-Jul-20 22:00N 59°14' E 022°07'918.9
2017-Jul-20 21:30N 59°08' E 021°52'1121.1
2017-Jul-20 21:00N 59°01' E 021°39'1119.6
2017-Jul-20 20:26N 58°51' E 021°26'717.0
2017-Jul-20 20:00N 58°45' E 021°19'14018.6
2017-Jul-20 12:30N 56°53' E 018°43'2218.8
2017-Jul-20 11:21N 56°40' E 018°12'618.6
2017-Jul-20 11:00N 56°36' E 018°03'1318.6
2017-Jul-20 10:19N 56°28' E 017°45'618.9
2017-Jul-20 10:00N 56°24' E 017°36'919.0
2017-Jul-20 09:31N 56°18' E 017°23'918.9
2017-Jul-20 09:00N 56°12' E 017°09'918.9
2017-Jul-20 08:30N 56°07' E 016°56'919.0
2017-Jul-20 08:00N 56°01' E 016°43'918.9
2017-Jul-20 07:31N 55°55' E 016°29'918.9
2017-Jul-20 07:01N 55°50' E 016°15'918.9
2017-Jul-20 06:30N 55°45' E 016°01'918.5
2017-Jul-20 06:00N 55°41' E 015°46'918.4
2017-Jul-20 05:30N 55°39' E 015°29'918.6
2017-Jul-20 05:01N 55°35' E 015°15'918.7
2017-Jul-20 04:31N 55°31' E 015°01'918.7
2017-Jul-20 04:00N 55°26' E 014°46'918.3
2017-Jul-20 03:30N 55°20' E 014°34'918.8
2017-Jul-20 03:00N 55°12' E 014°25'918.8
2017-Jul-20 02:30N 55°05' E 014°15'918.2
2017-Jul-20 02:00N 54°59' E 014°02'918.4
2017-Jul-20 01:31N 54°56' E 013°47'1018.4
2017-Jul-20 00:59N 54°54' E 013°31'918.3
2017-Jul-20 00:30N 54°51' E 013°16'917.9
2017-Jul-20 00:00N 54°49' E 013°01'917.4
2017-Jul-19 23:31N 54°46' E 012°47'917.3
2017-Jul-19 23:00N 54°42' E 012°34'917.5
2017-Jul-19 22:30N 54°38' E 012°21'917.1
2017-Jul-19 22:00N 54°30' E 012°14'918.0
2017-Jul-19 21:31N 54°22' E 012°07'815.1
2017-Jul-19 21:00N 54°14' E 012°04'5 9.2
2017-Jul-19 20:31N 54°10' E 012°06'1 2.2
2017-Jul-19 20:00N 54°09' E 012°07'0 0.0
2017-Jul-19 05:32N 54°09' E 012°07'1 1.9
2017-Jul-19 05:15N 54°09' E 012°06'2 6.0
2017-Jul-19 04:59N 54°11' E 012°06'3 5.5
2017-Jul-19 04:30N 54°13' E 012°04'4 7.9
2017-Jul-19 04:00N 54°16' E 011°60'2114.9
2017-Jul-19 02:34N 54°29' E 011°30'115.2
2017-Jul-19 02:31N 54°29' E 011°29'815.3
2017-Jul-19 02:01N 54°33' E 011°17'815.1
2017-Jul-19 01:31N 54°37' E 011°06'715.0
2017-Jul-19 01:01N 54°40' E 010°54'713.7
2017-Jul-19 00:31N 54°47' E 010°51'917.4
2017-Jul-19 00:01N 54°56' E 010°54'917.6
2017-Jul-18 23:30N 55°03' E 011°02'917.6
2017-Jul-18 23:00N 55°12' E 011°05'6713.3
2017-Jul-18 17:58N 56°11' E 012°02'1316.9
2017-Jul-18 17:10N 56°10' E 012°26'318.1
2017-Jul-18 17:00N 56°08' E 012°30'917.4
2017-Jul-18 16:31N 56°02' E 012°40'917.3
2017-Jul-18 16:01N 55°53' E 012°44'816.7
2017-Jul-18 15:31N 55°45' E 012°41'3 6.1
2017-Jul-18 15:00N 55°43' E 012°37'0 0.0
2017-Jul-18 14:00N 55°43' E 012°37'0 0.0
2017-Jul-18 13:30N 55°43' E 012°37'0 0.0
2017-Jul-18 12:59N 55°43' E 012°37'0 0.0
2017-Jul-18 12:29N 55°43' E 012°37'0 0.0
2017-Jul-18 11:59N 55°43' E 012°37'0 0.0
2017-Jul-18 11:29N 55°43' E 012°37'0 0.0
2017-Jul-18 10:59N 55°43' E 012°37'0 0.0
2017-Jul-18 10:28N 55°43' E 012°37'0 0.0
2017-Jul-18 09:58N 55°43' E 012°37'0 0.0
2017-Jul-18 09:28N 55°43' E 012°37'0 0.0
2017-Jul-18 08:58N 55°43' E 012°37'0 0.0
2017-Jul-18 08:28N 55°43' E 012°37'0 0.0
2017-Jul-18 07:58N 55°43' E 012°37'0 0.0
2017-Jul-18 07:28N 55°43' E 012°37'0 0.0
2017-Jul-18 06:58N 55°43' E 012°37'0 0.0
2017-Jul-18 06:28N 55°43' E 012°37'0 0.0
2017-Jul-18 05:58N 55°43' E 012°37'0 0.0
2017-Jul-18 05:28N 55°43' E 012°37'0 0.0
2017-Jul-18 04:55N 55°43' E 012°37'0 0.0
2017-Jul-18 04:28N 55°43' E 012°37'0 0.0
2017-Jul-18 03:58N 55°43' E 012°37'0 0.7
2017-Jul-18 03:30N 55°43' E 012°38'4 7.7
2017-Jul-18 03:01N 55°46' E 012°41'713.4
2017-Jul-18 02:30N 55°53' E 012°40'713.5
2017-Jul-18 02:01N 55°60' E 012°40'714.9
2017-Jul-18 01:31N 56°06' E 012°33'916.1
2017-Jul-18 00:59N 56°11' E 012°20'6612.8
2017-Jul-17 19:49N 55°22' E 011°02'616.7
2017-Jul-17 19:29N 55°16' E 011°05'816.5
2017-Jul-17 19:00N 55°08' E 011°03'917.7
2017-Jul-17 18:31N 54°59' E 011°01'816.9
2017-Jul-17 18:00N 54°52' E 010°53'816.8
2017-Jul-17 17:31N 54°44' E 010°53'815.7
2017-Jul-17 17:01N 54°39' E 011°03'917.1
2017-Jul-17 16:31N 54°35' E 011°16'1017.2
2017-Jul-17 15:55N 54°30' E 011°32'1517.0
2017-Jul-17 15:03N 54°26' E 011°57'117.6
2017-Jul-17 15:01N 54°26' E 011°58'816.5
2017-Jul-17 14:31N 54°27' E 012°12'7616.9
2017-Jul-17 10:02N 55°06' E 014°05'117.6
2017-Jul-17 09:59N 55°06' E 014°06'817.4
2017-Jul-17 09:30N 55°12' E 014°16'917.5
2017-Jul-17 09:00N 55°19' E 014°25'918.0
2017-Jul-17 08:30N 55°26' E 014°36'917.5
2017-Jul-17 08:01N 55°31' E 014°49'917.4
2017-Jul-17 07:31N 55°34' E 015°03'917.3
2017-Jul-17 07:01N 55°38' E 015°17'917.5
2017-Jul-17 06:30N 55°42' E 015°31'917.7
2017-Jul-17 06:01N 55°46' E 015°44'917.8
2017-Jul-17 05:31N 55°51' E 015°58'917.8
2017-Jul-17 05:01N 55°56' E 016°11'917.8
2017-Jul-17 04:30N 56°01' E 016°24'917.8
2017-Jul-17 04:01N 56°06' E 016°37'917.8
2017-Jul-17 03:30N 56°11' E 016°50'1118.0
2017-Jul-17 02:55N 56°19' E 017°03'158 8.6
2017-Jul-16 08:31N 58°55' E 017°58'0 0.0
2017-Jul-16 08:28N 58°55' E 017°58'0 0.0
2017-Jul-16 07:42N 58°55' E 017°58'0 0.0
2017-Jul-16 04:16N 58°55' E 017°58'1 3.4
2017-Jul-16 04:00N 58°55' E 017°59'4 8.4
2017-Jul-16 03:30N 58°51' E 018°03'714.0
2017-Jul-16 03:00N 58°45' E 018°10'714.0
2017-Jul-16 02:30N 58°46' E 018°23'917.7
2017-Jul-16 02:01N 58°48' E 018°40'815.3
2017-Jul-16 01:30N 58°50' E 018°54'714.7
2017-Jul-16 01:01N 58°52' E 019°08'917.8
2017-Jul-16 00:31N 58°55' E 019°24'815.8
2017-Jul-16 00:00N 58°58' E 019°38'815.4
2017-Jul-15 23:30N 59°00' E 019°52'816.5
2017-Jul-15 23:00N 59°03' E 020°08'917.7
2017-Jul-15 22:30N 59°06' E 020°24'918.0
2017-Jul-15 22:01N 59°09' E 020°40'917.3
2017-Jul-15 21:31N 59°12' E 020°56'1020.6
2017-Jul-15 21:00N 59°15' E 021°16'917.1
2017-Jul-15 20:30N 59°18' E 021°31'816.2
2017-Jul-15 20:00N 59°21' E 021°46'1123.0
2017-Jul-15 19:31N 59°24' E 022°08'714.8
2017-Jul-15 19:01N 59°27' E 022°21'816.9
2017-Jul-15 18:30N 59°30' E 022°37'918.1
2017-Jul-15 18:00N 59°33' E 022°54'917.8
2017-Jul-15 17:30N 59°35' E 023°11'917.6
2017-Jul-15 17:00N 59°38' E 023°27'917.5
2017-Jul-15 16:30N 59°41' E 023°43'917.7
2017-Jul-15 16:00N 59°44' E 024°00'917.8
2017-Jul-15 15:30N 59°47' E 024°17'917.6
2017-Jul-15 15:00N 59°51' E 024°32'1615.7
2017-Jul-15 14:00N 60°02' E 024°54'612.5
2017-Jul-15 13:30N 60°08' E 024°54'1 1.8
2017-Jul-15 12:59N 60°09' E 024°55'0 0.0
2017-Jul-15 12:29N 60°09' E 024°55'0 0.0
2017-Jul-15 11:59N 60°09' E 024°55'0 0.0
2017-Jul-15 11:29N 60°09' E 024°55'0 0.0
2017-Jul-15 10:59N 60°09' E 024°55'0 0.0
2017-Jul-15 10:29N 60°09' E 024°55'0 0.0
2017-Jul-15 09:59N 60°09' E 024°55'0 0.0
2017-Jul-15 09:30N 60°09' E 024°55'0 0.0
2017-Jul-15 09:00N 60°09' E 024°55'0 0.0
2017-Jul-15 08:30N 60°09' E 024°55'0 0.0
2017-Jul-15 08:00N 60°09' E 024°55'0 0.0
2017-Jul-15 07:30N 60°09' E 024°55'0 0.0
2017-Jul-15 07:00N 60°09' E 024°55'0 0.0
2017-Jul-15 06:30N 60°09' E 024°55'0 0.0
2017-Jul-15 06:00N 60°09' E 024°55'0 0.0
2017-Jul-15 05:30N 60°09' E 024°55'0 0.0
2017-Jul-15 05:01N 60°09' E 024°55'0 0.0
2017-Jul-15 04:30N 60°09' E 024°55'0 0.0
2017-Jul-15 04:00N 60°09' E 024°55'1 1.1
2017-Jul-15 03:30N 60°09' E 024°54'611.0
2017-Jul-15 03:00N 60°03' E 024°53'612.8
2017-Jul-15 02:30N 59°57' E 024°57'714.2
2017-Jul-15 02:01N 59°55' E 025°10'816.1
2017-Jul-15 01:31N 59°55' E 025°26'816.2
2017-Jul-15 01:00N 59°55' E 025°42'816.0
2017-Jul-15 00:30N 59°57' E 025°58'816.5
2017-Jul-15 00:01N 59°59' E 026°14'918.2
2017-Jul-14 23:31N 60°01' E 026°31'918.1
2017-Jul-14 23:00N 60°00' E 026°49'917.6
2017-Jul-14 22:31N 60°00' E 027°07'918.6
2017-Jul-14 22:01N 60°05' E 027°23'918.6
2017-Jul-14 21:31N 60°10' E 027°39'917.2
2017-Jul-14 21:01N 60°11' E 027°56'918.1
2017-Jul-14 20:30N 60°08' E 028°14'917.8
2017-Jul-14 20:01N 60°04' E 028°29'918.3
2017-Jul-14 19:31N 60°03' E 028°47'917.8
2017-Jul-14 19:01N 60°02' E 029°05'1119.8
2017-Jul-14 18:28N 60°02' E 029°27'10 9.9
2017-Jul-14 17:26N 59°59' E 029°46'610.5
2017-Jul-14 16:53N 59°56' E 029°56'410.0
2017-Jul-14 16:31N 59°56' E 030°04'4 7.5
2017-Jul-14 16:00N 59°57' E 030°11'0 0.2
2017-Jul-14 15:30N 59°57' E 030°11'0 0.0
2017-Jul-14 15:01N 59°57' E 030°11'0 0.0
2017-Jul-14 14:30N 59°57' E 030°11'0 0.0
2017-Jul-14 13:59N 59°57' E 030°11'0 0.0
2017-Jul-14 13:30N 59°57' E 030°11'0 0.0
2017-Jul-14 12:56N 59°57' E 030°11'0 0.0
2017-Jul-14 12:28N 59°57' E 030°11'0 0.0
2017-Jul-14 11:58N 59°57' E 030°11'0 0.0
2017-Jul-14 11:30N 59°57' E 030°11'0 0.0
2017-Jul-14 11:00N 59°57' E 030°11'0 0.0
2017-Jul-14 10:28N 59°57' E 030°11'0 0.0
2017-Jul-14 10:00N 59°57' E 030°11'0 0.0
2017-Jul-14 09:29N 59°57' E 030°11'0 0.0
2017-Jul-14 08:56N 59°57' E 030°11'0 0.0
2017-Jul-14 08:30N 59°57' E 030°11'0 0.0
2017-Jul-14 07:59N 59°57' E 030°11'0 0.0
2017-Jul-14 07:17N 59°57' E 030°11'0 0.0
2017-Jul-14 06:57N 59°57' E 030°11'0 0.0
2017-Jul-14 06:27N 59°57' E 030°11'0 0.0
2017-Jul-14 05:59N 59°57' E 030°11'0 0.0
2017-Jul-14 05:31N 59°57' E 030°11'0 0.0
2017-Jul-14 04:51N 59°57' E 030°11'0 0.0
2017-Jul-14 04:21N 59°57' E 030°11'0 0.0
2017-Jul-14 03:56N 59°57' E 030°11'0 0.0
2017-Jul-14 03:18N 59°57' E 030°11'0 0.0
2017-Jul-14 03:00N 59°57' E 030°11'0 0.0
2017-Jul-14 02:31N 59°57' E 030°11'0 0.0
2017-Jul-14 01:58N 59°57' E 030°11'0 0.0
2017-Jul-14 01:15N 59°57' E 030°11'0 0.0
2017-Jul-14 01:00N 59°57' E 030°11'0 0.0
2017-Jul-14 00:29N 59°57' E 030°11'0 0.0
2017-Jul-13 23:59N 59°57' E 030°11'0 0.0
2017-Jul-13 23:29N 59°57' E 030°11'0 0.0
2017-Jul-13 23:00N 59°57' E 030°11'0 0.0
2017-Jul-13 22:30N 59°57' E 030°11'0 0.0
2017-Jul-13 22:00N 59°57' E 030°11'0 0.0
2017-Jul-13 21:24N 59°57' E 030°11'0 0.0
2017-Jul-13 20:15N 59°57' E 030°11'0 0.0
2017-Jul-13 19:49N 59°57' E 030°11'0 0.0
2017-Jul-13 18:06N 59°57' E 030°11'0 0.0
2017-Jul-13 18:00N 59°57' E 030°11'0 0.0
2017-Jul-13 17:19N 59°57' E 030°11'0 0.0
2017-Jul-13 16:58N 59°57' E 030°11'0 0.0
2017-Jul-13 16:15N 59°57' E 030°11'0 0.0
2017-Jul-13 15:56N 59°57' E 030°11'0 0.0
2017-Jul-13 15:26N 59°57' E 030°11'0 0.0
2017-Jul-13 14:58N 59°57' E 030°11'0 0.0
2017-Jul-13 14:15N 59°57' E 030°11'0 0.0
2017-Jul-13 13:45N 59°57' E 030°11'0 0.0
2017-Jul-13 13:30N 59°57' E 030°11'0 0.0
2017-Jul-13 12:41N 59°57' E 030°11'0 0.0
2017-Jul-13 12:23N 59°57' E 030°11'0 0.0
2017-Jul-13 11:53N 59°57' E 030°11'0 0.0
2017-Jul-13 11:29N 59°57' E 030°11'0 0.0
2017-Jul-13 10:59N 59°57' E 030°11'0 0.0
2017-Jul-13 10:11N 59°57' E 030°11'0 0.0
2017-Jul-13 09:59N 59°57' E 030°11'0 0.0
2017-Jul-13 09:25N 59°57' E 030°11'0 0.0
2017-Jul-13 09:00N 59°57' E 030°11'0 0.0
2017-Jul-13 08:26N 59°57' E 030°11'0 0.0
2017-Jul-13 07:57N 59°57' E 030°11'0 0.0
2017-Jul-13 07:29N 59°57' E 030°11'0 0.0
2017-Jul-13 07:00N 59°57' E 030°11'0 0.0
2017-Jul-13 06:30N 59°57' E 030°11'0 0.0
2017-Jul-13 05:59N 59°57' E 030°11'0 0.0
2017-Jul-13 05:30N 59°57' E 030°11'0 0.0
2017-Jul-13 04:59N 59°57' E 030°11'0 0.0
2017-Jul-13 04:26N 59°57' E 030°11'0 0.0
2017-Jul-13 03:58N 59°57' E 030°11'0 0.3
2017-Jul-13 03:30N 59°57' E 030°11'3 5.7
2017-Jul-13 03:01N 59°56' E 030°05'4 8.7
2017-Jul-13 02:30N 59°56' E 029°57'511.0
2017-Jul-13 02:00N 59°58' E 029°47'5 9.9
2017-Jul-13 01:30N 60°00' E 029°38'611.7
2017-Jul-13 01:00N 60°01' E 029°26'713.3
2017-Jul-13 00:30N 60°02' E 029°13'714.5
2017-Jul-13 00:00N 60°02' E 028°59'714.5
2017-Jul-12 23:31N 60°02' E 028°44'714.3
2017-Jul-12 23:01N 60°03' E 028°30'816.1
2017-Jul-12 22:31N 60°07' E 028°16'714.7
2017-Jul-12 22:00N 60°09' E 028°02'714.4
2017-Jul-12 21:31N 60°11' E 027°48'714.5
2017-Jul-12 21:00N 60°07' E 027°35'815.8
2017-Jul-12 20:30N 60°03' E 027°22'815.2
2017-Jul-12 20:01N 59°59' E 027°09'714.3
2017-Jul-12 19:31N 59°59' E 026°54'815.5
2017-Jul-12 19:01N 59°60' E 026°39'815.1
2017-Jul-12 18:30N 59°58' E 026°25'917.2
2017-Jul-12 18:01N 59°55' E 026°08'  
Track history (hours):
 
Tides and Currents Weather Stations Pressure Air Temp Water Temp Dewpoint Dewpoint Depression Visibility Wind Speed Wind Dir Waves Ship Positions

Norwegian Getaway

Last reported at 2017-Jul-22 18:00 UTC. Time now 2017-Jul-22 18:27 UTC.
Position N 59°57' E 030°11'.

Length 326 m; draft 8.8 m.

Type: Passenger vessel. MMSI: 311050900.

Date/timePositionNaut miles runAvg speedWind from/ knotsBaromVisibWave heightAir tempDewpointWater temp
2017-Jul-22 18:00N 59°57' E 030°11'0 0.0
2017-Jul-22 17:27N 59°57' E 030°11'0 0.0
2017-Jul-22 16:58N 59°57' E 030°11'0 0.0
2017-Jul-22 16:30N 59°57' E 030°11'0 0.0
2017-Jul-22 15:58N 59°57' E 030°11'0 0.0
2017-Jul-22 15:30N 59°57' E 030°11'0 0.0
2017-Jul-22 15:00N 59°57' E 030°11'0 0.0
2017-Jul-22 13:58N 59°57' E 030°11'0 0.0
2017-Jul-22 13:30N 59°57' E 030°11'0 0.0
2017-Jul-22 12:58N 59°57' E 030°11'0 0.0
2017-Jul-22 12:28N 59°57' E 030°11'0 0.0
2017-Jul-22 11:58N 59°57' E 030°11'0 0.0
2017-Jul-22 11:28N 59°57' E 030°11'0 0.0
2017-Jul-22 10:58N 59°57' E 030°11'0 0.0
2017-Jul-22 10:30N 59°57' E 030°11'0 0.0
2017-Jul-22 09:58N 59°57' E 030°11'0 0.0
2017-Jul-22 09:30N 59°57' E 030°11'0 0.0
2017-Jul-22 08:48N 59°57' E 030°11'0 0.0
2017-Jul-22 08:21N 59°57' E 030°11'0 0.0
2017-Jul-22 07:54N 59°57' E 030°11'0 0.0
2017-Jul-22 07:29N 59°57' E 030°11'0 0.0
2017-Jul-22 06:58N 59°57' E 030°11'0 0.0
2017-Jul-22 06:21N 59°57' E 030°11'0 0.0
2017-Jul-22 05:59N 59°57' E 030°11'0 0.0
2017-Jul-22 05:22N 59°57' E 030°11'0 0.0
2017-Jul-22 05:00N 59°57' E 030°11'0 0.0
2017-Jul-22 04:29N 59°57' E 030°11'0 0.0
2017-Jul-22 03:55N 59°57' E 030°11'0 0.0
2017-Jul-22 03:30N 59°57' E 030°11'1 2.3
2017-Jul-22 03:00N 59°57' E 030°09'5 9.7
2017-Jul-22 02:30N 59°55' E 029°60'611.6
2017-Jul-22 02:00N 59°58' E 029°49'4 8.5
2017-Jul-22 01:30N 59°60' E 029°41'611.9
2017-Jul-22 00:59N 60°01' E 029°29'4 9.4
2017-Jul-22 00:30N 60°02' E 029°20'713.6
2017-Jul-22 00:00N 60°02' E 029°07'714.0
2017-Jul-21 23:30N 60°02' E 028°53'713.9
2017-Jul-21 23:00N 60°02' E 028°39'713.8
2017-Jul-21 22:30N 60°03' E 028°25'713.9
2017-Jul-21 22:00N 60°07' E 028°14'714.1
2017-Jul-21 21:30N 60°09' E 028°00'714.5
2017-Jul-21 21:00N 60°11' E 027°46'714.7
2017-Jul-21 20:30N 60°07' E 027°33'815.1
2017-Jul-21 20:01N 60°03' E 027°20'815.0
2017-Jul-21 19:30N 59°59' E 027°08'714.9
2017-Jul-21 19:01N 59°59' E 026°53'815.2
2017-Jul-21 18:30N 59°59' E 026°38'815.6
2017-Jul-21 18:01N 59°57' E 026°23'816.1
2017-Jul-21 17:30N 59°55' E 026°07'815.8
2017-Jul-21 17:00N 59°53' E 025°52'815.5
2017-Jul-21 16:30N 59°52' E 025°37'714.9
2017-Jul-21 16:01N 59°54' E 025°22'815.6
2017-Jul-21 15:31N 59°55' E 025°07'713.6
2017-Jul-21 15:00N 59°59' E 024°57'611.0
2017-Jul-21 14:31N 60°05' E 024°53'4 8.8
2017-Jul-21 14:00N 60°09' E 024°55'0 0.4
2017-Jul-21 13:29N 60°09' E 024°55'0 0.0
2017-Jul-21 12:59N 60°09' E 024°55'0 0.0
2017-Jul-21 12:29N 60°09' E 024°55'0 0.0
2017-Jul-21 11:59N 60°09' E 024°55'0 0.0
2017-Jul-21 11:28N 60°09' E 024°55'0 0.0
2017-Jul-21 11:00N 60°09' E 024°55'0 0.0
2017-Jul-21 10:30N 60°09' E 024°55'0 0.0
2017-Jul-21 09:59N 60°09' E 024°55'0 0.0
2017-Jul-21 09:29N 60°09' E 024°55'0 0.0
2017-Jul-21 08:58N 60°09' E 024°55'0 0.0
2017-Jul-21 08:27N 60°09' E 024°55'0 0.0
2017-Jul-21 08:00N 60°09' E 024°55'0 0.0
2017-Jul-21 07:29N 60°09' E 024°55'0 0.0
2017-Jul-21 06:59N 60°09' E 024°55'0 0.0
2017-Jul-21 06:29N 60°09' E 024°55'0 0.0
2017-Jul-21 05:59N 60°09' E 024°55'0 0.0
2017-Jul-21 05:29N 60°09' E 024°55'1 1.5
2017-Jul-21 05:00N 60°08' E 024°54'5 9.8
2017-Jul-21 04:30N 60°04' E 024°54'612.3
2017-Jul-21 04:00N 59°58' E 024°56'815.3
2017-Jul-21 03:30N 59°50' E 024°53'714.3
2017-Jul-21 03:00N 59°46' E 024°41'816.0
2017-Jul-21 02:31N 59°44' E 024°26'815.7
2017-Jul-21 02:00N 59°41' E 024°11'816.0
2017-Jul-21 01:31N 59°39' E 023°56'815.9
2017-Jul-21 01:00N 59°37' E 023°41'815.8
2017-Jul-21 00:31N 59°34' E 023°27'815.9
2017-Jul-21 00:00N 59°31' E 023°12'918.5
2017-Jul-20 23:31N 59°29' E 022°54'918.6
2017-Jul-20 23:00N 59°25' E 022°37'918.7
2017-Jul-20 22:31N 59°19' E 022°23'918.9
2017-Jul-20 22:00N 59°14' E 022°07'918.9
2017-Jul-20 21:30N 59°08' E 021°52'1121.1
2017-Jul-20 21:00N 59°01' E 021°39'1119.6
2017-Jul-20 20:26N 58°51' E 021°26'717.0
2017-Jul-20 20:00N 58°45' E 021°19'14018.6
2017-Jul-20 12:30N 56°53' E 018°43'2218.8
2017-Jul-20 11:21N 56°40' E 018°12'618.6
2017-Jul-20 11:00N 56°36' E 018°03'1318.6
2017-Jul-20 10:19N 56°28' E 017°45'618.9
2017-Jul-20 10:00N 56°24' E 017°36'919.0
2017-Jul-20 09:31N 56°18' E 017°23'918.9
2017-Jul-20 09:00N 56°12' E 017°09'918.9
2017-Jul-20 08:30N 56°07' E 016°56'919.0
2017-Jul-20 08:00N 56°01' E 016°43'918.9
2017-Jul-20 07:31N 55°55' E 016°29'918.9
2017-Jul-20 07:01N 55°50' E 016°15'918.9
2017-Jul-20 06:30N 55°45' E 016°01'918.5
2017-Jul-20 06:00N 55°41' E 015°46'918.4
2017-Jul-20 05:30N 55°39' E 015°29'918.6
2017-Jul-20 05:01N 55°35' E 015°15'918.7
2017-Jul-20 04:31N 55°31' E 015°01'918.7
2017-Jul-20 04:00N 55°26' E 014°46'918.3
2017-Jul-20 03:30N 55°20' E 014°34'918.8
2017-Jul-20 03:00N 55°12' E 014°25'918.8
2017-Jul-20 02:30N 55°05' E 014°15'918.2
2017-Jul-20 02:00N 54°59' E 014°02'918.4
2017-Jul-20 01:31N 54°56' E 013°47'1018.4
2017-Jul-20 00:59N 54°54' E 013°31'918.3
2017-Jul-20 00:30N 54°51' E 013°16'917.9
2017-Jul-20 00:00N 54°49' E 013°01'917.4
2017-Jul-19 23:31N 54°46' E 012°47'917.3
2017-Jul-19 23:00N 54°42' E 012°34'917.5
2017-Jul-19 22:30N 54°38' E 012°21'917.1
2017-Jul-19 22:00N 54°30' E 012°14'918.0
2017-Jul-19 21:31N 54°22' E 012°07'815.1
2017-Jul-19 21:00N 54°14' E 012°04'5 9.2
2017-Jul-19 20:31N 54°10' E 012°06'1 2.2
2017-Jul-19 20:00N 54°09' E 012°07'0 0.0
2017-Jul-19 05:32N 54°09' E 012°07'1 1.9
2017-Jul-19 05:15N 54°09' E 012°06'2 6.0
2017-Jul-19 04:59N 54°11' E 012°06'3 5.5
2017-Jul-19 04:30N 54°13' E 012°04'4 7.9
2017-Jul-19 04:00N 54°16' E 011°60'2114.9
2017-Jul-19 02:34N 54°29' E 011°30'115.2
2017-Jul-19 02:31N 54°29' E 011°29'815.3
2017-Jul-19 02:01N 54°33' E 011°17'815.1
2017-Jul-19 01:31N 54°37' E 011°06'715.0
2017-Jul-19 01:01N 54°40' E 010°54'713.7
2017-Jul-19 00:31N 54°47' E 010°51'917.4
2017-Jul-19 00:01N 54°56' E 010°54'917.6
2017-Jul-18 23:30N 55°03' E 011°02'917.6
2017-Jul-18 23:00N 55°12' E 011°05'6713.3
2017-Jul-18 17:58N 56°11' E 012°02'1316.9
2017-Jul-18 17:10N 56°10' E 012°26'318.1
2017-Jul-18 17:00N 56°08' E 012°30'917.4
2017-Jul-18 16:31N 56°02' E 012°40'917.3
2017-Jul-18 16:01N 55°53' E 012°44'816.7
2017-Jul-18 15:31N 55°45' E 012°41'3 6.1
2017-Jul-18 15:00N 55°43' E 012°37'0 0.0
2017-Jul-18 14:00N 55°43' E 012°37'0 0.0
2017-Jul-18 13:30N 55°43' E 012°37'0 0.0
2017-Jul-18 12:59N 55°43' E 012°37'0 0.0
2017-Jul-18 12:29N 55°43' E 012°37'0 0.0
2017-Jul-18 11:59N 55°43' E 012°37'0 0.0
2017-Jul-18 11:29N 55°43' E 012°37'0 0.0
2017-Jul-18 10:59N 55°43' E 012°37'0 0.0
2017-Jul-18 10:28N 55°43' E 012°37'0 0.0
2017-Jul-18 09:58N 55°43' E 012°37'0 0.0
2017-Jul-18 09:28N 55°43' E 012°37'0 0.0
2017-Jul-18 08:58N 55°43' E 012°37'0 0.0
2017-Jul-18 08:28N 55°43' E 012°37'0 0.0
2017-Jul-18 07:58N 55°43' E 012°37'0 0.0
2017-Jul-18 07:28N 55°43' E 012°37'0 0.0
2017-Jul-18 06:58N 55°43' E 012°37'0 0.0
2017-Jul-18 06:28N 55°43' E 012°37'0 0.0
2017-Jul-18 05:58N 55°43' E 012°37'0 0.0
2017-Jul-18 05:28N 55°43' E 012°37'0 0.0
2017-Jul-18 04:55N 55°43' E 012°37'0 0.0
2017-Jul-18 04:28N 55°43' E 012°37'0 0.0
2017-Jul-18 03:58N 55°43' E 012°37'0 0.7
2017-Jul-18 03:30N 55°43' E 012°38'4 7.7
2017-Jul-18 03:01N 55°46' E 012°41'713.4
2017-Jul-18 02:30N 55°53' E 012°40'713.5
2017-Jul-18 02:01N 55°60' E 012°40'714.9
2017-Jul-18 01:31N 56°06' E 012°33'916.1
2017-Jul-18 00:59N 56°11' E 012°20'6612.8
2017-Jul-17 19:49N 55°22' E 011°02'616.7
2017-Jul-17 19:29N 55°16' E 011°05'816.5
2017-Jul-17 19:00N 55°08' E 011°03'917.7
2017-Jul-17 18:31N 54°59' E 011°01'816.9
2017-Jul-17 18:00N 54°52' E 010°53'816.8
2017-Jul-17 17:31N 54°44' E 010°53'815.7
2017-Jul-17 17:01N 54°39' E 011°03'917.1
2017-Jul-17 16:31N 54°35' E 011°16'1017.2
2017-Jul-17 15:55N 54°30' E 011°32'1517.0
2017-Jul-17 15:03N 54°26' E 011°57'117.6
2017-Jul-17 15:01N 54°26' E 011°58'816.5
2017-Jul-17 14:31N 54°27' E 012°12'7616.9
2017-Jul-17 10:02N 55°06' E 014°05'117.6
2017-Jul-17 09:59N 55°06' E 014°06'817.4
2017-Jul-17 09:30N 55°12' E 014°16'917.5
2017-Jul-17 09:00N 55°19' E 014°25'918.0
2017-Jul-17 08:30N 55°26' E 014°36'917.5
2017-Jul-17 08:01N 55°31' E 014°49'917.4
2017-Jul-17 07:31N 55°34' E 015°03'917.3
2017-Jul-17 07:01N 55°38' E 015°17'917.5
2017-Jul-17 06:30N 55°42' E 015°31'917.7
2017-Jul-17 06:01N 55°46' E 015°44'917.8
2017-Jul-17 05:31N 55°51' E 015°58'917.8
2017-Jul-17 05:01N 55°56' E 016°11'917.8
2017-Jul-17 04:30N 56°01' E 016°24'917.8
2017-Jul-17 04:01N 56°06' E 016°37'917.8
2017-Jul-17 03:30N 56°11' E 016°50'1118.0
2017-Jul-17 02:55N 56°19' E 017°03'158 8.6
2017-Jul-16 08:31N 58°55' E 017°58'0 0.0
2017-Jul-16 08:28N 58°55' E 017°58'0 0.0
2017-Jul-16 07:42N 58°55' E 017°58'0 0.0
2017-Jul-16 04:16N 58°55' E 017°58'1 3.4
2017-Jul-16 04:00N 58°55' E 017°59'4 8.4
2017-Jul-16 03:30N 58°51' E 018°03'714.0
2017-Jul-16 03:00N 58°45' E 018°10'714.0
2017-Jul-16 02:30N 58°46' E 018°23'917.7
2017-Jul-16 02:01N 58°48' E 018°40'815.3
2017-Jul-16 01:30N 58°50' E 018°54'714.7
2017-Jul-16 01:01N 58°52' E 019°08'917.8
2017-Jul-16 00:31N 58°55' E 019°24'815.8
2017-Jul-16 00:00N 58°58' E 019°38'815.4
2017-Jul-15 23:30N 59°00' E 019°52'816.5
2017-Jul-15 23:00N 59°03' E 020°08'917.7
2017-Jul-15 22:30N 59°06' E 020°24'918.0
2017-Jul-15 22:01N 59°09' E 020°40'917.3
2017-Jul-15 21:31N 59°12' E 020°56'1020.6
2017-Jul-15 21:00N 59°15' E 021°16'917.1
2017-Jul-15 20:30N 59°18' E 021°31'816.2
2017-Jul-15 20:00N 59°21' E 021°46'1123.0
2017-Jul-15 19:31N 59°24' E 022°08'714.8
2017-Jul-15 19:01N 59°27' E 022°21'816.9
2017-Jul-15 18:30N 59°30' E 022°37'918.1
2017-Jul-15 18:00N 59°33' E 022°54'917.8
2017-Jul-15 17:30N 59°35' E 023°11'917.6
2017-Jul-15 17:00N 59°38' E 023°27'917.5
2017-Jul-15 16:30N 59°41' E 023°43'917.7
2017-Jul-15 16:00N 59°44' E 024°00'917.8
2017-Jul-15 15:30N 59°47' E 024°17'917.6
2017-Jul-15 15:00N 59°51' E 024°32'1615.7
2017-Jul-15 14:00N 60°02' E 024°54'612.5
2017-Jul-15 13:30N 60°08' E 024°54'1 1.8
2017-Jul-15 12:59N 60°09' E 024°55'0 0.0
2017-Jul-15 12:29N 60°09' E 024°55'0 0.0
2017-Jul-15 11:59N 60°09' E 024°55'0 0.0
2017-Jul-15 11:29N 60°09' E 024°55'0 0.0
2017-Jul-15 10:59N 60°09' E 024°55'0 0.0
2017-Jul-15 10:29N 60°09' E 024°55'0 0.0
2017-Jul-15 09:59N 60°09' E 024°55'0 0.0
2017-Jul-15 09:30N 60°09' E 024°55'0 0.0
2017-Jul-15 09:00N 60°09' E 024°55'0 0.0
2017-Jul-15 08:30N 60°09' E 024°55'0 0.0
2017-Jul-15 08:00N 60°09' E 024°55'0 0.0
2017-Jul-15 07:30N 60°09' E 024°55'0 0.0
2017-Jul-15 07:00N 60°09' E 024°55'0 0.0
2017-Jul-15 06:30N 60°09' E 024°55'0 0.0
2017-Jul-15 06:00N 60°09' E 024°55'0 0.0
2017-Jul-15 05:30N 60°09' E 024°55'0 0.0
2017-Jul-15 05:01N 60°09' E 024°55'0 0.0
2017-Jul-15 04:30N 60°09' E 024°55'0 0.0
2017-Jul-15 04:00N 60°09' E 024°55'1 1.1
2017-Jul-15 03:30N 60°09' E 024°54'611.0
2017-Jul-15 03:00N 60°03' E 024°53'612.8
2017-Jul-15 02:30N 59°57' E 024°57'714.2
2017-Jul-15 02:01N 59°55' E 025°10'816.1
2017-Jul-15 01:31N 59°55' E 025°26'816.2
2017-Jul-15 01:00N 59°55' E 025°42'816.0
2017-Jul-15 00:30N 59°57' E 025°58'816.5
2017-Jul-15 00:01N 59°59' E 026°14'918.2
2017-Jul-14 23:31N 60°01' E 026°31'918.1
2017-Jul-14 23:00N 60°00' E 026°49'917.6
2017-Jul-14 22:31N 60°00' E 027°07'918.6
2017-Jul-14 22:01N 60°05' E 027°23'918.6
2017-Jul-14 21:31N 60°10' E 027°39'917.2
2017-Jul-14 21:01N 60°11' E 027°56'918.1
2017-Jul-14 20:30N 60°08' E 028°14'917.8
2017-Jul-14 20:01N 60°04' E 028°29'918.3
2017-Jul-14 19:31N 60°03' E 028°47'917.8
2017-Jul-14 19:01N 60°02' E 029°05'1119.8
2017-Jul-14 18:28N 60°02' E 029°27'10 9.9
2017-Jul-14 17:26N 59°59' E 029°46'610.5
2017-Jul-14 16:53N 59°56' E 029°56'410.0
2017-Jul-14 16:31N 59°56' E 030°04'4 7.5
2017-Jul-14 16:00N 59°57' E 030°11'0 0.2
2017-Jul-14 15:30N 59°57' E 030°11'0 0.0
2017-Jul-14 15:01N 59°57' E 030°11'0 0.0
2017-Jul-14 14:30N 59°57' E 030°11'0 0.0
2017-Jul-14 13:59N 59°57' E 030°11'0 0.0
2017-Jul-14 13:30N 59°57' E 030°11'0 0.0
2017-Jul-14 12:56N 59°57' E 030°11'0 0.0
2017-Jul-14 12:28N 59°57' E 030°11'0 0.0
2017-Jul-14 11:58N 59°57' E 030°11'0 0.0
2017-Jul-14 11:30N 59°57' E 030°11'0 0.0
2017-Jul-14 11:00N 59°57' E 030°11'0 0.0
2017-Jul-14 10:28N 59°57' E 030°11'0 0.0
2017-Jul-14 10:00N 59°57' E 030°11'0 0.0
2017-Jul-14 09:29N 59°57' E 030°11'0 0.0
2017-Jul-14 08:56N 59°57' E 030°11'0 0.0
2017-Jul-14 08:30N 59°57' E 030°11'0 0.0
2017-Jul-14 07:59N 59°57' E 030°11'0 0.0
2017-Jul-14 07:17N 59°57' E 030°11'0 0.0
2017-Jul-14 06:57N 59°57' E 030°11'0 0.0
2017-Jul-14 06:27N 59°57' E 030°11'0 0.0
2017-Jul-14 05:59N 59°57' E 030°11'0 0.0
2017-Jul-14 05:31N 59°57' E 030°11'0 0.0
2017-Jul-14 04:51N 59°57' E 030°11'0 0.0
2017-Jul-14 04:21N 59°57' E 030°11'0 0.0
2017-Jul-14 03:56N 59°57' E 030°11'0 0.0
2017-Jul-14 03:18N 59°57' E 030°11'0 0.0
2017-Jul-14 03:00N 59°57' E 030°11'0 0.0
2017-Jul-14 02:31N 59°57' E 030°11'0 0.0
2017-Jul-14 01:58N 59°57' E 030°11'0 0.0
2017-Jul-14 01:15N 59°57' E 030°11'0 0.0
2017-Jul-14 01:00N 59°57' E 030°11'0 0.0
2017-Jul-14 00:29N 59°57' E 030°11'0 0.0
2017-Jul-13 23:59N 59°57' E 030°11'0 0.0
2017-Jul-13 23:29N 59°57' E 030°11'0 0.0
2017-Jul-13 23:00N 59°57' E 030°11'0 0.0
2017-Jul-13 22:30N 59°57' E 030°11'0 0.0
2017-Jul-13 22:00N 59°57' E 030°11'0 0.0
2017-Jul-13 21:24N 59°57' E 030°11'0 0.0
2017-Jul-13 20:15N 59°57' E 030°11'0 0.0
2017-Jul-13 19:49N 59°57' E 030°11'0 0.0
2017-Jul-13 18:06N 59°57' E 030°11'0 0.0
2017-Jul-13 18:00N 59°57' E 030°11'0 0.0
2017-Jul-13 17:19N 59°57' E 030°11'0 0.0
2017-Jul-13 16:58N 59°57' E 030°11'0 0.0
2017-Jul-13 16:15N 59°57' E 030°11'0 0.0
2017-Jul-13 15:56N 59°57' E 030°11'0 0.0
2017-Jul-13 15:26N 59°57' E 030°11'0 0.0
2017-Jul-13 14:58N 59°57' E 030°11'0 0.0
2017-Jul-13 14:15N 59°57' E 030°11'0 0.0
2017-Jul-13 13:45N 59°57' E 030°11'0 0.0
2017-Jul-13 13:30N 59°57' E 030°11'0 0.0
2017-Jul-13 12:41N 59°57' E 030°11'0 0.0
2017-Jul-13 12:23N 59°57' E 030°11'0 0.0
2017-Jul-13 11:53N 59°57' E 030°11'0 0.0
2017-Jul-13 11:29N 59°57' E 030°11'0 0.0
2017-Jul-13 10:59N 59°57' E 030°11'0 0.0
2017-Jul-13 10:11N 59°57' E 030°11'0 0.0
2017-Jul-13 09:59N 59°57' E 030°11'0 0.0
2017-Jul-13 09:25N 59°57' E 030°11'0 0.0
2017-Jul-13 09:00N 59°57' E 030°11'0 0.0
2017-Jul-13 08:26N 59°57' E 030°11'0 0.0
2017-Jul-13 07:57N 59°57' E 030°11'0 0.0
2017-Jul-13 07:29N 59°57' E 030°11'0 0.0
2017-Jul-13 07:00N 59°57' E 030°11'0 0.0
2017-Jul-13 06:30N 59°57' E 030°11'0 0.0
2017-Jul-13 05:59N 59°57' E 030°11'0 0.0
2017-Jul-13 05:30N 59°57' E 030°11'0 0.0
2017-Jul-13 04:59N 59°57' E 030°11'0 0.0
2017-Jul-13 04:26N 59°57' E 030°11'0 0.0
2017-Jul-13 03:58N 59°57' E 030°11'0 0.3
2017-Jul-13 03:30N 59°57' E 030°11'3 5.7
2017-Jul-13 03:01N 59°56' E 030°05'4 8.7
2017-Jul-13 02:30N 59°56' E 029°57'511.0
2017-Jul-13 02:00N 59°58' E 029°47'5 9.9
2017-Jul-13 01:30N 60°00' E 029°38'611.7
2017-Jul-13 01:00N 60°01' E 029°26'713.3
2017-Jul-13 00:30N 60°02' E 029°13'714.5
2017-Jul-13 00:00N 60°02' E 028°59'714.5
2017-Jul-12 23:31N 60°02' E 028°44'714.3
2017-Jul-12 23:01N 60°03' E 028°30'816.1
2017-Jul-12 22:31N 60°07' E 028°16'714.7
2017-Jul-12 22:00N 60°09' E 028°02'714.4
2017-Jul-12 21:31N 60°11' E 027°48'714.5
2017-Jul-12 21:00N 60°07' E 027°35'815.8
2017-Jul-12 20:30N 60°03' E 027°22'815.2
2017-Jul-12 20:01N 59°59' E 027°09'714.3
2017-Jul-12 19:31N 59°59' E 026°54'815.5
2017-Jul-12 19:01N 59°60' E 026°39'815.1
2017-Jul-12 18:30N 59°58' E 026°25'917.2
2017-Jul-12 18:01N 59°55' E 026°08'  

Dump ship's entire track history